sensor_id;sensor_type;location;lat;lon;timestamp;noise_LAeq;noise_LA_min;noise_LA_max;noise_LA01;noise_LA95
51665;Laerm;37751;52.408;12.536;2023-03-25T00:01:16;56.62;45.62;72.18;;
51665;Laerm;37751;52.408;12.536;2023-03-25T00:03:44;56.95;46.46;75.14;;
51665;Laerm;37751;52.408;12.536;2023-03-25T00:06:18;54.45;45.23;68.67;;
51665;Laerm;37751;52.408;12.536;2023-03-25T00:08:46;56.35;44.63;70.25;;
51665;Laerm;37751;52.408;12.536;2023-03-25T00:11:14;57.51;45.15;73.10;;
51665;Laerm;37751;52.408;12.536;2023-03-25T00:13:41;56.02;45.43;71.44;;
51665;Laerm;37751;52.408;12.536;2023-03-25T00:16:11;56.95;47.13;68.45;;
51665;Laerm;37751;52.408;12.536;2023-03-25T00:18:39;53.93;45.23;70.24;;
51665;Laerm;37751;52.408;12.536;2023-03-25T00:21:07;54.90;46.42;68.45;;
51665;Laerm;37751;52.408;12.536;2023-03-25T00:23:39;48.63;45.03;54.51;;
51665;Laerm;37751;52.408;12.536;2023-03-25T00:26:08;55.63;45.03;70.56;;
51665;Laerm;37751;52.408;12.536;2023-03-25T00:28:37;50.30;44.86;61.48;;
51665;Laerm;37751;52.408;12.536;2023-03-25T00:31:12;56.66;45.54;71.67;;
51665;Laerm;37751;52.408;12.536;2023-03-25T00:33:41;53.28;45.31;67.34;;
51665;Laerm;37751;52.408;12.536;2023-03-25T00:36:09;54.21;45.51;67.50;;
51665;Laerm;37751;52.408;12.536;2023-03-25T00:38:40;51.57;45.03;66.40;;
51665;Laerm;37751;52.408;12.536;2023-03-25T00:41:19;56.61;45.35;72.33;;
51665;Laerm;37751;52.408;12.536;2023-03-25T00:43:59;51.61;46.01;65.42;;
51665;Laerm;37751;52.408;12.536;2023-03-25T00:46:30;54.80;45.15;68.10;;
51665;Laerm;37751;52.408;12.536;2023-03-25T00:49:01;55.36;44.81;68.90;;
51665;Laerm;37751;52.408;12.536;2023-03-25T00:51:29;54.60;45.76;68.42;;
51665;Laerm;37751;52.408;12.536;2023-03-25T00:53:58;56.62;44.54;70.36;;
51665;Laerm;37751;52.408;12.536;2023-03-25T00:56:30;56.49;44.63;72.31;;
51665;Laerm;37751;52.408;12.536;2023-03-25T00:58:58;54.95;45.35;70.04;;
51665;Laerm;37751;52.408;12.536;2023-03-25T01:01:27;58.08;45.62;72.10;;
51665;Laerm;37751;52.408;12.536;2023-03-25T01:03:58;53.46;44.39;67.96;;
51665;Laerm;37751;52.408;12.536;2023-03-25T01:06:31;50.77;44.63;66.59;;
51665;Laerm;37751;52.408;12.536;2023-03-25T01:09:04;51.81;44.39;68.58;;
51665;Laerm;37751;52.408;12.536;2023-03-25T01:11:33;54.02;43.82;87.21;;
51665;Laerm;37751;52.408;12.536;2023-03-25T01:14:06;55.80;45.94;69.97;;
51665;Laerm;37751;52.408;12.536;2023-03-25T01:16:34;52.01;45.80;67.92;;
51665;Laerm;37751;52.408;12.536;2023-03-25T01:19:02;54.92;44.39;71.12;;
51665;Laerm;37751;52.408;12.536;2023-03-25T01:21:29;55.70;44.90;66.65;;
51665;Laerm;37751;52.408;12.536;2023-03-25T01:24:00;53.81;44.68;68.32;;
51665;Laerm;37751;52.408;12.536;2023-03-25T01:26:28;54.25;44.39;66.33;;
51665;Laerm;37751;52.408;12.536;2023-03-25T01:28:56;51.91;45.11;66.47;;
51665;Laerm;37751;52.408;12.536;2023-03-25T01:31:24;52.92;44.24;71.27;;
51665;Laerm;37751;52.408;12.536;2023-03-25T01:33:58;57.16;44.14;74.75;;
51665;Laerm;37751;52.408;12.536;2023-03-25T01:36:26;50.49;44.44;60.09;;
51665;Laerm;37751;52.408;12.536;2023-03-25T01:38:58;54.72;44.09;68.97;;
51665;Laerm;37751;52.408;12.536;2023-03-25T01:41:28;54.70;44.72;68.26;;
51665;Laerm;37751;52.408;12.536;2023-03-25T01:46:51;53.25;45.27;72.23;;
51665;Laerm;37751;52.408;12.536;2023-03-25T01:49:29;49.63;44.81;61.85;;
51665;Laerm;37751;52.408;12.536;2023-03-25T01:52:06;53.67;44.68;75.02;;
51665;Laerm;37751;52.408;12.536;2023-03-25T01:54:36;55.01;45.47;87.21;;
51665;Laerm;37751;52.408;12.536;2023-03-25T01:57:07;53.43;44.24;87.22;;
51665;Laerm;37751;52.408;12.536;2023-03-25T01:59:37;53.55;44.49;73.43;;
51665;Laerm;37751;52.408;12.536;2023-03-25T02:02:07;54.86;45.69;66.00;;
51665;Laerm;37751;52.408;12.536;2023-03-25T02:04:54;50.90;43.47;67.33;;
51665;Laerm;37751;52.408;12.536;2023-03-25T02:07:30;54.31;43.53;69.45;;
51665;Laerm;37751;52.408;12.536;2023-03-25T02:10:03;53.47;44.49;74.27;;
51665;Laerm;37751;52.408;12.536;2023-03-25T02:12:31;50.20;43.16;67.11;;
51665;Laerm;37751;52.408;12.536;2023-03-25T02:15:02;52.52;44.94;67.98;;
51665;Laerm;37751;52.408;12.536;2023-03-25T02:28:43;54.06;42.30;69.20;;
51665;Laerm;37751;52.408;12.536;2023-03-25T02:41:00;52.88;43.76;67.00;;
51665;Laerm;37751;52.408;12.536;2023-03-25T02:43:51;51.33;44.68;69.59;;
51665;Laerm;37751;52.408;12.536;2023-03-25T02:46:22;53.00;43.53;72.85;;
51665;Laerm;37751;52.408;12.536;2023-03-25T02:49:04;58.98;45.87;73.00;;
51665;Laerm;37751;52.408;12.536;2023-03-25T02:51:59;57.74;44.77;74.85;;
51665;Laerm;37751;52.408;12.536;2023-03-25T02:54:30;50.60;44.04;71.62;;
51665;Laerm;37751;52.408;12.536;2023-03-25T02:57:04;52.43;43.82;69.25;;
51665;Laerm;37751;52.408;12.536;2023-03-25T02:59:35;46.27;43.35;55.56;;
51665;Laerm;37751;52.408;12.536;2023-03-25T03:02:09;58.89;44.58;77.86;;
51665;Laerm;37751;52.408;12.536;2023-03-25T03:04:54;50.52;43.09;68.65;;
51665;Laerm;37751;52.408;12.536;2023-03-25T03:07:28;55.72;44.80;71.79;;
51665;Laerm;37751;52.408;12.536;2023-03-25T03:10:19;58.17;44.68;76.00;;
51665;Laerm;37751;52.408;12.536;2023-03-25T03:13:07;57.22;43.93;75.20;;
51665;Laerm;37751;52.408;12.536;2023-03-25T03:24:51;55.05;44.04;68.62;;
51665;Laerm;37751;52.408;12.536;2023-03-25T03:33:56;54.10;44.68;66.92;;
51665;Laerm;37751;52.408;12.536;2023-03-25T03:36:30;58.03;42.96;76.06;;
51665;Laerm;37751;52.408;12.536;2023-03-25T03:39:12;57.14;45.83;68.22;;
51665;Laerm;37751;52.408;12.536;2023-03-25T03:41:47;55.72;44.94;67.81;;
51665;Laerm;37751;52.408;12.536;2023-03-25T03:44:21;56.51;43.76;90.39;;
51665;Laerm;37751;52.408;12.536;2023-03-25T03:47:33;59.56;43.79;76.56;;
51665;Laerm;37751;52.408;12.536;2023-03-25T03:49:59;58.30;44.39;71.91;;
51665;Laerm;37751;52.408;12.536;2023-03-25T03:52:36;57.45;46.66;72.80;;
51665;Laerm;37751;52.408;12.536;2023-03-25T03:55:15;58.79;46.39;72.20;;
51665;Laerm;37751;52.408;12.536;2023-03-25T03:57:53;59.04;46.48;71.33;;
51665;Laerm;37751;52.408;12.536;2023-03-25T04:00:39;55.25;43.82;68.44;;
51665;Laerm;37751;52.408;12.536;2023-03-25T04:03:29;59.04;44.90;70.77;;
51665;Laerm;37751;52.408;12.536;2023-03-25T04:06:32;55.30;46.45;68.95;;
51665;Laerm;37751;52.408;12.536;2023-03-25T04:12:26;61.37;49.61;72.81;;
51665;Laerm;37751;52.408;12.536;2023-03-25T04:14:55;60.77;50.00;80.29;;
51665;Laerm;37751;52.408;12.536;2023-03-25T04:17:23;59.60;48.44;72.01;;
51665;Laerm;37751;52.408;12.536;2023-03-25T04:19:51;58.51;48.54;69.79;;
51665;Laerm;37751;52.408;12.536;2023-03-25T04:22:20;58.88;50.55;68.28;;
51665;Laerm;37751;52.408;12.536;2023-03-25T04:24:48;55.75;46.04;72.23;;
51665;Laerm;37751;52.408;12.536;2023-03-25T04:27:20;59.22;48.84;70.92;;
51665;Laerm;37751;52.408;12.536;2023-03-25T04:29:49;61.40;49.64;72.61;;
51665;Laerm;37751;52.408;12.536;2023-03-25T04:32:18;58.06;45.51;70.36;;
51665;Laerm;37751;52.408;12.536;2023-03-25T04:34:46;58.64;46.69;71.13;;
51665;Laerm;37751;52.408;12.536;2023-03-25T04:37:14;58.37;48.28;70.40;;
51665;Laerm;37751;52.408;12.536;2023-03-25T04:39:42;59.96;44.29;71.66;;
51665;Laerm;37751;52.408;12.536;2023-03-25T04:42:10;67.21;47.15;85.74;;
51665;Laerm;37751;52.408;12.536;2023-03-25T04:44:40;60.84;48.86;71.81;;
51665;Laerm;37751;52.408;12.536;2023-03-25T04:47:11;58.45;46.45;73.63;;
51665;Laerm;37751;52.408;12.536;2023-03-25T04:49:41;59.34;47.62;70.20;;
51665;Laerm;37751;52.408;12.536;2023-03-25T04:52:11;59.43;47.55;71.88;;
51665;Laerm;37751;52.408;12.536;2023-03-25T04:54:39;61.99;48.95;74.86;;
51665;Laerm;37751;52.408;12.536;2023-03-25T04:57:06;60.67;47.93;74.78;;
51665;Laerm;37751;52.408;12.536;2023-03-25T04:59:37;61.90;49.23;79.82;;
51665;Laerm;37751;52.408;12.536;2023-03-25T05:02:05;60.61;45.87;73.39;;
51665;Laerm;37751;52.408;12.536;2023-03-25T05:04:33;60.28;48.18;76.16;;
51665;Laerm;37751;52.408;12.536;2023-03-25T05:07:01;62.41;47.28;76.23;;
51665;Laerm;37751;52.408;12.536;2023-03-25T05:09:30;60.37;48.91;73.06;;
51665;Laerm;37751;52.408;12.536;2023-03-25T05:11:58;58.16;47.38;68.54;;
51665;Laerm;37751;52.408;12.536;2023-03-25T05:14:25;57.10;46.72;69.82;;
51665;Laerm;37751;52.408;12.536;2023-03-25T05:16:53;61.59;48.54;73.88;;
51665;Laerm;37751;52.408;12.536;2023-03-25T05:19:23;62.49;47.78;76.15;;
51665;Laerm;37751;52.408;12.536;2023-03-25T05:21:52;59.80;46.07;70.82;;
51665;Laerm;37751;52.408;12.536;2023-03-25T05:24:19;57.72;46.11;70.22;;
51665;Laerm;37751;52.408;12.536;2023-03-25T05:26:47;57.73;46.27;70.53;;
51665;Laerm;37751;52.408;12.536;2023-03-25T05:29:15;61.79;49.56;77.32;;
51665;Laerm;37751;52.408;12.536;2023-03-25T05:31:44;62.42;47.88;78.90;;
51665;Laerm;37751;52.408;12.536;2023-03-25T05:34:13;58.01;46.69;70.69;;
51665;Laerm;37751;52.408;12.536;2023-03-25T05:36:43;59.39;46.80;71.56;;
51665;Laerm;37751;52.408;12.536;2023-03-25T05:39:11;58.67;47.28;73.66;;
51665;Laerm;37751;52.408;12.536;2023-03-25T05:41:39;58.08;44.63;70.24;;
51665;Laerm;37751;52.408;12.536;2023-03-25T05:44:08;57.89;43.79;68.57;;
51665;Laerm;37751;52.408;12.536;2023-03-25T05:46:36;62.15;48.46;73.93;;
51665;Laerm;37751;52.408;12.536;2023-03-25T05:49:04;61.92;47.69;75.18;;
51665;Laerm;37751;52.408;12.536;2023-03-25T05:51:33;59.28;46.01;70.37;;
51665;Laerm;37751;52.408;12.536;2023-03-25T05:54:05;59.97;47.48;70.13;;
51665;Laerm;37751;52.408;12.536;2023-03-25T05:56:38;57.81;47.25;72.28;;
51665;Laerm;37751;52.408;12.536;2023-03-25T05:59:06;59.16;47.05;71.14;;
51665;Laerm;37751;52.408;12.536;2023-03-25T06:01:35;60.83;51.68;70.63;;
51665;Laerm;37751;52.408;12.536;2023-03-25T06:04:08;60.19;48.81;73.20;;
51665;Laerm;37751;52.408;12.536;2023-03-25T06:06:37;58.32;48.48;72.89;;
51665;Laerm;37751;52.408;12.536;2023-03-25T06:09:06;59.85;47.89;73.11;;
51665;Laerm;37751;52.408;12.536;2023-03-25T06:11:34;60.05;48.16;70.28;;
51665;Laerm;37751;52.408;12.536;2023-03-25T06:14:06;60.96;45.97;75.32;;
51665;Laerm;37751;52.408;12.536;2023-03-25T06:16:34;58.94;47.38;70.56;;
51665;Laerm;37751;52.408;12.536;2023-03-25T06:19:02;59.80;47.55;74.46;;
51665;Laerm;37751;52.408;12.536;2023-03-25T06:21:34;60.78;46.33;72.97;;
51665;Laerm;37751;52.408;12.536;2023-03-25T06:24:02;63.26;51.64;73.99;;
51665;Laerm;37751;52.408;12.536;2023-03-25T06:26:30;61.53;52.05;72.16;;
51665;Laerm;37751;52.408;12.536;2023-03-25T06:29:00;61.40;54.20;74.64;;
51665;Laerm;37751;52.408;12.536;2023-03-25T06:31:30;61.72;50.75;73.15;;
51665;Laerm;37751;52.408;12.536;2023-03-25T06:34:01;62.40;50.03;76.57;;
51665;Laerm;37751;52.408;12.536;2023-03-25T06:36:29;60.88;49.18;71.15;;
51665;Laerm;37751;52.408;12.536;2023-03-25T06:38:58;61.97;48.54;74.00;;
51665;Laerm;37751;52.408;12.536;2023-03-25T06:41:26;74.48;50.24;96.29;;
51665;Laerm;37751;52.408;12.536;2023-03-25T06:44:13;63.50;49.42;79.96;;
51665;Laerm;37751;52.408;12.536;2023-03-25T06:47:00;66.51;47.82;86.19;;
51665;Laerm;37751;52.408;12.536;2023-03-25T06:49:43;62.07;50.66;80.35;;
51665;Laerm;37751;52.408;12.536;2023-03-25T06:52:11;62.09;48.70;81.75;;
51665;Laerm;37751;52.408;12.536;2023-03-25T06:54:39;62.53;52.04;76.76;;
51665;Laerm;37751;52.408;12.536;2023-03-25T06:57:07;60.75;49.88;76.50;;
51665;Laerm;37751;52.408;12.536;2023-03-25T06:59:36;61.73;50.34;71.33;;
51665;Laerm;37751;52.408;12.536;2023-03-25T07:02:04;60.80;48.86;72.87;;
51665;Laerm;37751;52.408;12.536;2023-03-25T07:04:33;60.57;50.11;69.69;;
51665;Laerm;37751;52.408;12.536;2023-03-25T07:07:00;60.87;47.52;71.34;;
51665;Laerm;37751;52.408;12.536;2023-03-25T07:09:28;62.28;48.22;73.26;;
51665;Laerm;37751;52.408;12.536;2023-03-25T07:11:56;61.20;46.66;71.63;;
51665;Laerm;37751;52.408;12.536;2023-03-25T07:14:25;63.12;47.13;76.01;;
51665;Laerm;37751;52.408;12.536;2023-03-25T07:16:53;61.87;49.87;72.09;;
51665;Laerm;37751;52.408;12.536;2023-03-25T07:19:21;61.92;49.23;73.46;;
51665;Laerm;37751;52.408;12.536;2023-03-25T07:21:48;64.15;53.24;74.55;;
51665;Laerm;37751;52.408;12.536;2023-03-25T07:24:16;61.99;49.49;71.80;;
51665;Laerm;37751;52.408;12.536;2023-03-25T07:26:44;61.27;49.00;70.19;;
51665;Laerm;37751;52.408;12.536;2023-03-25T07:29:14;70.40;49.96;95.08;;
51665;Laerm;37751;52.408;12.536;2023-03-25T07:31:42;62.60;48.24;73.18;;
51665;Laerm;37751;52.408;12.536;2023-03-25T07:34:10;63.99;51.83;76.09;;
51665;Laerm;37751;52.408;12.536;2023-03-25T07:36:37;60.44;48.93;69.71;;
51665;Laerm;37751;52.408;12.536;2023-03-25T07:39:05;62.35;51.62;77.93;;
51665;Laerm;37751;52.408;12.536;2023-03-25T07:41:34;62.81;51.26;73.14;;
51665;Laerm;37751;52.408;12.536;2023-03-25T07:44:09;61.18;47.97;72.81;;
51665;Laerm;37751;52.408;12.536;2023-03-25T07:46:37;63.63;51.29;76.24;;
51665;Laerm;37751;52.408;12.536;2023-03-25T07:49:05;62.68;47.45;75.99;;
51665;Laerm;37751;52.408;12.536;2023-03-25T07:51:33;68.93;52.16;89.21;;
51665;Laerm;37751;52.408;12.536;2023-03-25T07:54:01;62.43;48.36;75.37;;
51665;Laerm;37751;52.408;12.536;2023-03-25T07:56:33;61.11;46.96;72.05;;
51665;Laerm;37751;52.408;12.536;2023-03-25T07:59:01;65.09;48.06;83.86;;
51665;Laerm;37751;52.408;12.536;2023-03-25T08:01:30;64.25;49.15;74.76;;
51665;Laerm;37751;52.408;12.536;2023-03-25T08:03:58;64.86;52.43;82.04;;
51665;Laerm;37751;52.408;12.536;2023-03-25T08:06:26;62.62;52.93;70.40;;
51665;Laerm;37751;52.408;12.536;2023-03-25T08:08:53;61.33;49.70;69.99;;
51665;Laerm;37751;52.408;12.536;2023-03-25T08:11:22;62.06;52.60;71.76;;
51665;Laerm;37751;52.408;12.536;2023-03-25T08:13:50;62.28;49.99;71.56;;
51665;Laerm;37751;52.408;12.536;2023-03-25T08:16:17;61.53;48.38;77.95;;
51665;Laerm;37751;52.408;12.536;2023-03-25T08:18:45;62.13;51.91;75.26;;
51665;Laerm;37751;52.408;12.536;2023-03-25T08:21:19;61.35;52.31;71.29;;
51665;Laerm;37751;52.408;12.536;2023-03-25T08:23:52;78.35;55.36;98.60;;
51665;Laerm;37751;52.408;12.536;2023-03-25T08:26:26;63.78;49.69;75.03;;
51665;Laerm;37751;52.408;12.536;2023-03-25T08:28:54;62.90;50.55;75.45;;
51665;Laerm;37751;52.408;12.536;2023-03-25T08:31:25;63.56;51.25;75.75;;
51665;Laerm;37751;52.408;12.536;2023-03-25T08:34:02;63.68;52.75;73.25;;
51665;Laerm;37751;52.408;12.536;2023-03-25T08:36:45;61.92;51.35;70.97;;
51665;Laerm;37751;52.408;12.536;2023-03-25T08:39:13;63.34;52.93;74.22;;
51665;Laerm;37751;52.408;12.536;2023-03-25T08:41:44;62.74;52.20;72.68;;
51665;Laerm;37751;52.408;12.536;2023-03-25T08:44:13;63.26;52.03;74.08;;
51665;Laerm;37751;52.408;12.536;2023-03-25T08:46:41;66.56;49.66;85.77;;
51665;Laerm;37751;52.408;12.536;2023-03-25T08:49:09;62.68;50.09;70.81;;
51665;Laerm;37751;52.408;12.536;2023-03-25T08:51:37;63.30;51.85;76.48;;
51665;Laerm;37751;52.408;12.536;2023-03-25T08:54:04;63.00;51.67;70.39;;
51665;Laerm;37751;52.408;12.536;2023-03-25T08:56:32;64.61;55.09;83.74;;
51665;Laerm;37751;52.408;12.536;2023-03-25T08:59:00;62.10;50.74;72.40;;
51665;Laerm;37751;52.408;12.536;2023-03-25T09:01:28;62.31;51.30;69.97;;
51665;Laerm;37751;52.408;12.536;2023-03-25T09:03:56;62.72;51.68;75.36;;
51665;Laerm;37751;52.408;12.536;2023-03-25T09:06:24;62.82;53.47;72.97;;
51665;Laerm;37751;52.408;12.536;2023-03-25T09:08:52;62.32;50.28;72.36;;
51665;Laerm;37751;52.408;12.536;2023-03-25T09:11:22;62.37;51.45;71.53;;
51665;Laerm;37751;52.408;12.536;2023-03-25T09:14:03;61.55;48.26;73.00;;
51665;Laerm;37751;52.408;12.536;2023-03-25T09:16:32;62.20;52.35;71.49;;
51665;Laerm;37751;52.408;12.536;2023-03-25T09:19:01;63.52;55.18;71.66;;
51665;Laerm;37751;52.408;12.536;2023-03-25T09:21:29;65.13;51.25;78.58;;
51665;Laerm;37751;52.408;12.536;2023-03-25T09:24:00;70.83;54.01;95.54;;
51665;Laerm;37751;52.408;12.536;2023-03-25T09:26:27;62.41;52.64;72.79;;
51665;Laerm;37751;52.408;12.536;2023-03-25T09:28:55;62.31;49.29;74.88;;
51665;Laerm;37751;52.408;12.536;2023-03-25T09:31:23;61.45;51.30;70.68;;
51665;Laerm;37751;52.408;12.536;2023-03-25T09:33:51;62.75;51.87;72.40;;
51665;Laerm;37751;52.408;12.536;2023-03-25T09:36:19;66.73;52.76;82.03;;
51665;Laerm;37751;52.408;12.536;2023-03-25T09:38:47;64.51;54.22;76.97;;
51665;Laerm;37751;52.408;12.536;2023-03-25T09:41:56;62.94;53.30;71.73;;
51665;Laerm;37751;52.408;12.536;2023-03-25T09:45:10;61.63;49.58;70.83;;
51665;Laerm;37751;52.408;12.536;2023-03-25T09:50:47;61.29;50.15;72.44;;
51665;Laerm;37751;52.408;12.536;2023-03-25T09:53:31;61.89;47.78;72.52;;
51665;Laerm;37751;52.408;12.536;2023-03-25T09:56:03;63.30;52.43;72.87;;
51665;Laerm;37751;52.408;12.536;2023-03-25T09:58:40;62.01;50.32;74.79;;
51665;Laerm;37751;52.408;12.536;2023-03-25T10:13:35;61.78;49.91;70.72;;
51665;Laerm;37751;52.408;12.536;2023-03-25T10:19:52;62.29;52.63;73.50;;
51665;Laerm;37751;52.408;12.536;2023-03-25T10:22:38;62.75;52.75;71.98;;
51665;Laerm;37751;52.408;12.536;2023-03-25T10:25:19;63.68;50.30;74.96;;
51665;Laerm;37751;52.408;12.536;2023-03-25T10:27:51;61.81;51.30;69.87;;
51665;Laerm;37751;52.408;12.536;2023-03-25T10:30:38;61.47;52.33;70.14;;
51665;Laerm;37751;52.408;12.536;2023-03-25T10:33:40;61.62;50.85;77.62;;
51665;Laerm;37751;52.408;12.536;2023-03-25T10:36:13;62.48;50.80;76.22;;
51665;Laerm;37751;52.408;12.536;2023-03-25T10:38:49;62.32;49.39;71.16;;
51665;Laerm;37751;52.408;12.536;2023-03-25T10:41:29;63.34;53.33;76.58;;
51665;Laerm;37751;52.408;12.536;2023-03-25T10:43:57;61.02;47.82;68.99;;
51665;Laerm;37751;52.408;12.536;2023-03-25T10:46:30;64.12;51.34;75.96;;
51665;Laerm;37751;52.408;12.536;2023-03-25T10:49:01;62.15;50.73;73.35;;
51665;Laerm;37751;52.408;12.536;2023-03-25T10:51:32;66.50;54.66;78.60;;
51665;Laerm;37751;52.408;12.536;2023-03-25T10:54:03;62.41;52.44;71.36;;
51665;Laerm;37751;52.408;12.536;2023-03-25T10:59:25;63.20;49.42;76.04;;
51665;Laerm;37751;52.408;12.536;2023-03-25T11:02:13;62.40;51.64;76.05;;
51665;Laerm;37751;52.408;12.536;2023-03-25T11:04:43;63.07;51.86;71.80;;
51665;Laerm;37751;52.408;12.536;2023-03-25T11:07:19;71.87;54.29;95.22;;
51665;Laerm;37751;52.408;12.536;2023-03-25T11:09:48;62.17;50.20;73.09;;
51665;Laerm;37751;52.408;12.536;2023-03-25T11:12:20;61.98;50.03;71.24;;
51665;Laerm;37751;52.408;12.536;2023-03-25T11:15:25;61.83;50.78;74.07;;
51665;Laerm;37751;52.408;12.536;2023-03-25T11:18:21;76.07;47.97;95.86;;
51665;Laerm;37751;52.408;12.536;2023-03-25T11:21:02;70.75;49.95;88.81;;
51665;Laerm;37751;52.408;12.536;2023-03-25T11:23:34;63.67;51.86;75.24;;
51665;Laerm;37751;52.408;12.536;2023-03-25T11:26:26;62.03;52.28;75.70;;
51665;Laerm;37751;52.408;12.536;2023-03-25T11:31:34;62.34;50.44;76.98;;
51665;Laerm;37751;52.408;12.536;2023-03-25T11:37:13;61.88;50.73;72.55;;
51665;Laerm;37751;52.408;12.536;2023-03-25T11:39:42;63.66;53.08;74.80;;
51665;Laerm;37751;52.408;12.536;2023-03-25T11:42:39;62.62;51.91;74.74;;
51665;Laerm;37751;52.408;12.536;2023-03-25T11:45:34;62.71;52.94;71.30;;
51665;Laerm;37751;52.408;12.536;2023-03-25T11:48:11;64.00;53.06;73.07;;
51665;Laerm;37751;52.408;12.536;2023-03-25T11:50:48;62.57;50.21;73.53;;
51665;Laerm;37751;52.408;12.536;2023-03-25T11:53:20;71.86;51.59;90.44;;
51665;Laerm;37751;52.408;12.536;2023-03-25T11:55:54;67.76;53.07;83.84;;
51665;Laerm;37751;52.408;12.536;2023-03-25T11:58:33;62.38;49.71;71.66;;
51665;Laerm;37751;52.408;12.536;2023-03-25T12:01:24;67.76;54.44;82.45;;
51665;Laerm;37751;52.408;12.536;2023-03-25T12:04:14;62.47;50.97;73.39;;
51665;Laerm;37751;52.408;12.536;2023-03-25T12:07:12;62.28;48.42;76.58;;
51665;Laerm;37751;52.408;12.536;2023-03-25T12:09:57;63.21;50.52;73.84;;
51665;Laerm;37751;52.408;12.536;2023-03-25T12:23:52;64.99;56.12;77.96;;
51665;Laerm;37751;52.408;12.536;2023-03-25T12:27:04;62.66;49.21;74.05;;
51665;Laerm;37751;52.408;12.536;2023-03-25T12:38:44;74.18;50.14;93.58;;
51665;Laerm;37751;52.408;12.536;2023-03-25T12:47:23;64.68;49.12;84.96;;
51665;Laerm;37751;52.408;12.536;2023-03-25T13:07:25;62.86;48.91;74.46;;
51665;Laerm;37751;52.408;12.536;2023-03-25T13:12:38;62.73;49.05;72.00;;
51665;Laerm;37751;52.408;12.536;2023-03-25T13:15:23;65.82;50.14;82.26;;
51665;Laerm;37751;52.408;12.536;2023-03-25T13:18:08;62.27;50.74;73.41;;
51665;Laerm;37751;52.408;12.536;2023-03-25T13:20:58;63.00;52.70;72.36;;
51665;Laerm;37751;52.408;12.536;2023-03-25T13:23:28;62.42;51.90;74.87;;
51665;Laerm;37751;52.408;12.536;2023-03-25T13:28:43;68.92;53.18;85.60;;
51665;Laerm;37751;52.408;12.536;2023-03-25T13:31:20;63.16;52.91;73.42;;
51665;Laerm;37751;52.408;12.536;2023-03-25T13:34:17;63.80;52.79;78.67;;
51665;Laerm;37751;52.408;12.536;2023-03-25T13:39:53;63.39;50.30;73.46;;
51665;Laerm;37751;52.408;12.536;2023-03-25T13:45:24;61.07;48.24;70.00;;
51665;Laerm;37751;52.408;12.536;2023-03-25T13:48:10;62.93;49.74;73.37;;
51665;Laerm;37751;52.408;12.536;2023-03-25T13:50:40;64.50;50.66;73.49;;
51665;Laerm;37751;52.408;12.536;2023-03-25T13:53:30;62.77;49.73;71.97;;
51665;Laerm;37751;52.408;12.536;2023-03-25T14:08:18;62.45;49.42;72.05;;
51665;Laerm;37751;52.408;12.536;2023-03-25T14:13:42;62.99;50.30;75.77;;
51665;Laerm;37751;52.408;12.536;2023-03-25T14:16:18;62.79;51.34;77.88;;
51665;Laerm;37751;52.408;12.536;2023-03-25T14:18:52;61.67;51.11;70.79;;
51665;Laerm;37751;52.408;12.536;2023-03-25T14:21:42;62.17;52.18;71.67;;
51665;Laerm;37751;52.408;12.536;2023-03-25T14:24:31;62.55;50.95;71.83;;
51665;Laerm;37751;52.408;12.536;2023-03-25T14:27:03;61.76;51.43;71.94;;
51665;Laerm;37751;52.408;12.536;2023-03-25T14:29:59;62.31;50.58;71.40;;
51665;Laerm;37751;52.408;12.536;2023-03-25T14:32:37;61.61;49.83;78.80;;
51665;Laerm;37751;52.408;12.536;2023-03-25T14:43:32;61.24;47.89;72.65;;
51665;Laerm;37751;52.408;12.536;2023-03-25T14:54:29;62.67;49.28;77.58;;
51665;Laerm;37751;52.408;12.536;2023-03-25T14:57:15;64.65;50.20;80.02;;
51665;Laerm;37751;52.408;12.536;2023-03-25T14:59:59;61.61;48.91;73.41;;
51665;Laerm;37751;52.408;12.536;2023-03-25T15:02:31;60.02;48.20;74.62;;
51665;Laerm;37751;52.408;12.536;2023-03-25T15:05:17;62.75;50.03;71.62;;
51665;Laerm;37751;52.408;12.536;2023-03-25T15:10:37;63.41;50.36;75.21;;
51665;Laerm;37751;52.408;12.536;2023-03-25T15:13:32;63.01;51.02;72.41;;
51665;Laerm;37751;52.408;12.536;2023-03-25T15:16:37;61.33;48.46;74.22;;
51665;Laerm;37751;52.408;12.536;2023-03-25T15:19:21;61.53;49.82;71.29;;
51665;Laerm;37751;52.408;12.536;2023-03-25T15:22:20;63.12;48.57;76.03;;
51665;Laerm;37751;52.408;12.536;2023-03-25T15:24:54;62.32;52.26;74.73;;
51665;Laerm;37751;52.408;12.536;2023-03-25T15:28:19;65.04;55.06;85.10;;
51665;Laerm;37751;52.408;12.536;2023-03-25T15:51:01;62.89;51.56;75.04;;
51665;Laerm;37751;52.408;12.536;2023-03-25T15:56:41;63.34;53.19;71.89;;
51665;Laerm;37751;52.408;12.536;2023-03-25T15:59:43;63.50;49.99;73.65;;
51665;Laerm;37751;52.408;12.536;2023-03-25T16:02:24;61.66;50.40;74.16;;
51665;Laerm;37751;52.408;12.536;2023-03-25T16:04:54;64.37;51.65;74.18;;
51665;Laerm;37751;52.408;12.536;2023-03-25T16:07:26;62.88;52.32;69.57;;
51665;Laerm;37751;52.408;12.536;2023-03-25T16:10:21;64.28;50.16;74.24;;
51665;Laerm;37751;52.408;12.536;2023-03-25T16:12:54;63.61;53.63;75.45;;
51665;Laerm;37751;52.408;12.536;2023-03-25T16:15:28;64.99;51.57;86.61;;
51665;Laerm;37751;52.408;12.536;2023-03-25T16:17:58;63.84;49.73;71.80;;
51665;Laerm;37751;52.408;12.536;2023-03-25T16:20:29;63.36;48.50;74.90;;
51665;Laerm;37751;52.408;12.536;2023-03-25T16:23:00;63.64;49.90;75.45;;
51665;Laerm;37751;52.408;12.536;2023-03-25T16:25:36;63.07;49.73;73.31;;
51665;Laerm;37751;52.408;12.536;2023-03-25T16:28:20;62.53;51.97;72.09;;
51665;Laerm;37751;52.408;12.536;2023-03-25T16:30:52;61.83;50.80;74.79;;
51665;Laerm;37751;52.408;12.536;2023-03-25T16:33:30;62.75;52.77;71.04;;
51665;Laerm;37751;52.408;12.536;2023-03-25T16:36:08;63.38;53.21;74.10;;
51665;Laerm;37751;52.408;12.536;2023-03-25T16:38:40;64.22;55.61;73.48;;
51665;Laerm;37751;52.408;12.536;2023-03-25T16:41:13;63.94;53.52;75.29;;
51665;Laerm;37751;52.408;12.536;2023-03-25T16:43:42;63.74;53.60;73.24;;
51665;Laerm;37751;52.408;12.536;2023-03-25T16:46:11;65.18;49.95;84.54;;
51665;Laerm;37751;52.408;12.536;2023-03-25T16:48:50;63.29;50.45;84.14;;
51665;Laerm;37751;52.408;12.536;2023-03-25T16:51:29;62.43;50.94;75.11;;
51665;Laerm;37751;52.408;12.536;2023-03-25T16:54:09;63.12;51.11;71.11;;
51665;Laerm;37751;52.408;12.536;2023-03-25T16:56:42;61.90;51.00;71.86;;
51665;Laerm;37751;52.408;12.536;2023-03-25T16:59:26;63.97;51.81;72.28;;
51665;Laerm;37751;52.408;12.536;2023-03-25T17:01:57;63.17;52.34;71.83;;
51665;Laerm;37751;52.408;12.536;2023-03-25T17:04:39;62.31;52.91;71.55;;
51665;Laerm;37751;52.408;12.536;2023-03-25T17:07:16;61.75;51.81;70.26;;
51665;Laerm;37751;52.408;12.536;2023-03-25T17:09:50;60.38;49.55;71.13;;
51665;Laerm;37751;52.408;12.536;2023-03-25T17:12:21;61.43;50.28;70.58;;
51665;Laerm;37751;52.408;12.536;2023-03-25T17:14:54;62.81;49.71;71.49;;